• Join FlightAware (Why Join?)
  • Login
  • US Flag 
03:47PM EDT


 

Airport Tracker/Info


-or-


 

Live Flight TrackerFlight Track Log ✈ ASQ5105 ✈ 12-Jun-2013 ✈ KIAD - KATL

Flight Track Log - Related Links

Times and Time Zones

All times are in EDT time to prevent confusion due to time zone crossing. See the ASQ5105 flight status page for this flight to view local times or setup timezone preferences in your user account.

Time Position Orientation Groundspeed Altitude Reporting Facility
EDT Latitude Longitude Course Direction KTS MPH feet Rate Location/Type
10:00AM 38.9333 -77.5000 229° Southwest 169 194 1,900  Level Potomac TRACON
10:01AM 38.9000 -77.5500 229° Southwest 208 239 3,700 2,040 Climbing Potomac TRACON
10:03AM 38.7503 -77.6333 203° Southwest 270 311 8,600 2,280 Climbing Washington Center
10:04AM 38.6642 -77.6656 196° South 297 342 11,200 2,040 Climbing Washington Center
10:05AM 38.5928 -77.6956 198° South 312 359 12,800 1,860 Climbing Washington Center
10:06AM 38.4894 -77.7561 205° Southwest 338 389 15,000 1,740 Climbing Washington Center
10:07AM 38.4483 -77.8397 238° Southwest 333 383 16,400 1,800 Climbing Washington Center
10:08AM 38.3811 -77.9675 236° Southwest 352 405 18,600 1,980 Climbing Washington Center
10:09AM 38.3269 -78.0717 236° Southwest 362 417 20,400 1,740 Climbing Washington Center
10:10AM 38.2725 -78.1783 237° Southwest 362 417 22,200 1,680 Climbing Washington Center
10:11AM 38.2139 -78.2900 236° Southwest 372 428 23,800 1,440 Climbing Washington Center
10:12AM 38.1572 -78.3989 237° Southwest 369 425 25,100 1,140 Climbing Washington Center
10:13AM 38.1064 -78.5131 241° Southwest 375 432 26,200 1,080 Climbing Washington Center
10:14AM 38.0658 -78.6381 248° West 375 432 27,300 960 Climbing Washington Center
10:15AM 38.0228 -78.7656 247° West 388 447 28,200 900 Climbing Washington Center
10:16AM 37.9822 -78.8822 246° West 398 458 29,200 960 Climbing Washington Center
10:17AM 37.9058 -78.9975 230° Southwest 403 464 30,200 960 Climbing Washington Center
10:18AM 37.8278 -79.1094 229° Southwest 423 487 31,200 900 Climbing Washington Center
10:19AM 37.7492 -79.2242 229° Southwest 437 503 32,000 360 Climbing Washington Center
10:20AM 37.6597 -79.3511 228° Southwest 447 514 32,000  Level Washington Center
10:21AM 37.5875 -79.4550 229° Southwest 447 514 32,000  Level Washington Center
10:22AM 37.5000 -79.5814 229° Southwest 447 514 32,000  Level Washington Center
10:23AM 37.4233 -79.6897 228° Southwest 441 507 32,000  Level Washington Center
10:24AM 37.3356 -79.8106 228° Southwest 450 518 32,000  Level Washington Center
10:25AM 37.2544 -79.9261 229° Southwest 445 512 32,000  Level Washington Center
10:27AM 37.0775 -80.1703 228° Southwest 438 504 32,000  Level Atlanta Center
10:28AM 36.9975 -80.2808 228° Southwest 438 504 32,000  Level Atlanta Center
10:29AM 36.9075 -80.4072 228° Southwest 433 498 32,000  Level Atlanta Center
10:30AM 36.8253 -80.5197 228° Southwest 433 498 32,000  Level Atlanta Center
10:31AM 36.7611 -80.6108 229° Southwest 438 504 32,000  Level Atlanta Center
10:32AM 36.6686 -80.7339 227° Southwest 438 504 32,000  Level Atlanta Center
10:33AM 36.5883 -80.8508 229° Southwest 443 510 32,000  Level Atlanta Center
10:34AM 36.5117 -80.9547 227° Southwest 448 516 32,000  Level Atlanta Center
10:35AM 36.4150 -81.0900 228° Southwest 448 516 32,000  Level Atlanta Center
10:36AM 36.3303 -81.2092 229° Southwest 448 516 32,000  Level Atlanta Center
10:37AM 36.2450 -81.3175 226° Southwest 448 516 32,000  Level Atlanta Center
10:38AM 36.1642 -81.4308 229° Southwest 448 516 32,000  Level Atlanta Center
10:39AM 36.0831 -81.5414 228° Southwest 448 516 32,000  Level Atlanta Center
10:40AM 35.9997 -81.6544 228° Southwest 448 516 32,000  Level Atlanta Center
10:41AM 35.9164 -81.7669 228° Southwest 453 521 32,000  Level Atlanta Center
10:42AM 35.8308 -81.8822 228° Southwest 453 521 32,000  Level Atlanta Center
10:43AM 35.7469 -81.9867 225° Southwest 439 505 32,000  Level Atlanta Center
10:44AM 35.6633 -82.0936 226° Southwest 432 497 32,000  Level Atlanta Center
10:45AM 35.5772 -82.2056 227° Southwest 437 503 32,000 -300 Level Atlanta Center
10:46AM 35.4933 -82.3119 226° Southwest 432 497 31,400 -1,200 Descending Atlanta Center
10:47AM 35.4031 -82.4258 226° Southwest 450 518 29,600 -1,980 Descending Atlanta Center
10:48AM 35.3128 -82.5372 225° Southwest 463 533 27,500 1,200 Descending Atlanta Center
10:49AM 35.2283 -82.6353 224° Southwest 463 533 32,000 -1,980 Climbing Atlanta Center
10:50AM 35.1439 -82.7408 226° Southwest 455 524 23,600 -5,100 Descending Atlanta Center
10:51AM 35.0511 -82.8614 227° Southwest 442 509 21,800 -1,740 Descending Atlanta Center
10:52AM 34.9686 -82.9589 224° Southwest 430 495 20,200 -900 Descending Atlanta Center
10:53AM 34.8942 -83.0358 220° Southwest 424 488 20,000 -120 Descending Atlanta Center
10:54AM 34.7864 -83.1408 219° Southwest 424 488 20,000  Level Atlanta Center
10:55AM 34.6975 -83.2328 220° Southwest 429 494 20,000 -300 Level Atlanta Center
10:56AM 34.6061 -83.3247 220° Southwest 429 494 19,500 -900 Descending Atlanta Center
10:57AM 34.5169 -83.4161 220° Southwest 429 494 18,200 -1,260 Descending Atlanta Center
10:58AM 34.4317 -83.4997 219° Southwest 413 475 17,000 -1,320 Descending Atlanta Center
10:59AM 34.3486 -83.5833 220° Southwest 400 460 15,600 -1,380 Descending Atlanta Center
11:00AM 34.2653 -83.6667 220° Southwest 400 460 14,300 -1,200 Descending Atlanta Center
11:01AM 34.1906 -83.7400 219° Southwest 392 451 13,200 -1,200 Descending Atlanta Center
11:02AM 34.1156 -83.8131 219° Southwest 380 437 12,000 -1,080 Descending Atlanta Center
11:03AM 34.0489 -83.8833 221° Southwest 345 397 11,100 -1,380 Descending Atlanta Center
11:04AM 34.0000 -83.9333 220° Southwest 301 346 9,700 -1,200 Descending Atlanta TRACON
11:05AM 33.9167 -83.9667 198° South 298 343 9,000 -360 Descending Atlanta TRACON
11:06AM 33.8500 -83.9833 192° South 287 330 9,000  Level Atlanta TRACON
11:06AM 33.8214 -83.9814 177° South 286 329 9,000 -900 Level Atlanta Center
11:07AM 33.7400 -83.9864 183° South 291 335 7,900 -1,440 Descending Atlanta Center
11:08AM 33.6606 -84.0014 189° South 291 335 6,200 -960 Descending Atlanta Center
11:09AM 33.6272 -84.0736 241° Southwest 237 273 6,000 -360 Descending Atlanta Center
11:10AM 33.6333 -84.1333 277° West 234 269 5,600 -1,020 Descending Atlanta TRACON
11:11AM 33.6333 -84.2167 270° West 220 253 4,200 -1,200 Descending Atlanta TRACON
11:12AM 33.6333 -84.2667 270° West 180 207 3,200 -960 Descending Atlanta TRACON
11:13AM 33.6333 -84.3333 270° West 165 190 2,300 -840 Descending Atlanta TRACON
11:14AM 33.6333 -84.3833 270° West 136 157 1,600 -720 Descending Atlanta TRACON
11:16AM 33.6367 -84.4279 270° West  Level Estimated
11:23AM 33.6367 -84.4279 64° Northeast  Level Estimated